sensor_id;sensor_type;location;lat;lon;timestamp;temperature;humidity
40023;DHT22;25713;-35.352;149.036;2023-05-07T00:01:08;12.70;86.70
40023;DHT22;25713;-35.352;149.036;2023-05-07T00:03:37;12.70;86.00
40023;DHT22;25713;-35.352;149.036;2023-05-07T00:06:06;12.70;86.40
40023;DHT22;25713;-35.352;149.036;2023-05-07T00:08:38;12.70;85.90
40023;DHT22;25713;-35.352;149.036;2023-05-07T00:11:08;12.70;85.50
40023;DHT22;25713;-35.352;149.036;2023-05-07T00:13:37;12.70;84.50
40023;DHT22;25713;-35.352;149.036;2023-05-07T00:16:06;12.70;84.20
40023;DHT22;25713;-35.352;149.036;2023-05-07T00:18:36;12.70;84.70
40023;DHT22;25713;-35.352;149.036;2023-05-07T00:21:05;12.70;85.60
40023;DHT22;25713;-35.352;149.036;2023-05-07T00:23:35;12.70;85.20
40023;DHT22;25713;-35.352;149.036;2023-05-07T00:26:06;12.70;85.60
40023;DHT22;25713;-35.352;149.036;2023-05-07T00:28:36;12.70;86.00
40023;DHT22;25713;-35.352;149.036;2023-05-07T00:31:05;12.70;85.80
40023;DHT22;25713;-35.352;149.036;2023-05-07T00:33:34;12.70;85.20
40023;DHT22;25713;-35.352;149.036;2023-05-07T00:36:04;12.80;84.80
40023;DHT22;25713;-35.352;149.036;2023-05-07T00:38:34;12.70;83.40
40023;DHT22;25713;-35.352;149.036;2023-05-07T00:41:05;12.70;83.10
40023;DHT22;25713;-35.352;149.036;2023-05-07T00:43:35;12.80;83.10
40023;DHT22;25713;-35.352;149.036;2023-05-07T00:46:04;12.80;82.90
40023;DHT22;25713;-35.352;149.036;2023-05-07T00:48:34;12.80;83.10
40023;DHT22;25713;-35.352;149.036;2023-05-07T00:51:03;12.80;83.20
40023;DHT22;25713;-35.352;149.036;2023-05-07T00:53:33;12.70;83.30
40023;DHT22;25713;-35.352;149.036;2023-05-07T00:56:03;12.80;83.70
40023;DHT22;25713;-35.352;149.036;2023-05-07T00:58:34;12.80;83.80
40023;DHT22;25713;-35.352;149.036;2023-05-07T01:01:04;12.70;83.80
40023;DHT22;25713;-35.352;149.036;2023-05-07T01:03:33;12.80;84.60
40023;DHT22;25713;-35.352;149.036;2023-05-07T01:06:05;12.80;84.80
40023;DHT22;25713;-35.352;149.036;2023-05-07T01:08:35;12.80;83.70
40023;DHT22;25713;-35.352;149.036;2023-05-07T01:11:05;12.80;83.00
40023;DHT22;25713;-35.352;149.036;2023-05-07T01:13:38;12.80;83.40
40023;DHT22;25713;-35.352;149.036;2023-05-07T01:16:10;12.90;83.30
40023;DHT22;25713;-35.352;149.036;2023-05-07T01:18:39;12.90;82.90
40023;DHT22;25713;-35.352;149.036;2023-05-07T01:21:11;13.00;83.30
40023;DHT22;25713;-35.352;149.036;2023-05-07T01:23:43;13.00;83.10
40023;DHT22;25713;-35.352;149.036;2023-05-07T01:26:13;13.10;83.30
40023;DHT22;25713;-35.352;149.036;2023-05-07T01:28:44;13.10;83.60
40023;DHT22;25713;-35.352;149.036;2023-05-07T01:31:15;13.10;84.00
40023;DHT22;25713;-35.352;149.036;2023-05-07T01:33:46;13.10;83.60
40023;DHT22;25713;-35.352;149.036;2023-05-07T01:36:18;13.10;83.60
40023;DHT22;25713;-35.352;149.036;2023-05-07T01:38:51;13.10;83.30
40023;DHT22;25713;-35.352;149.036;2023-05-07T01:41:21;13.00;83.10
40023;DHT22;25713;-35.352;149.036;2023-05-07T01:43:53;13.00;83.00
40023;DHT22;25713;-35.352;149.036;2023-05-07T01:46:23;13.00;83.00
40023;DHT22;25713;-35.352;149.036;2023-05-07T01:48:52;13.00;83.20
40023;DHT22;25713;-35.352;149.036;2023-05-07T01:51:22;13.00;83.40
40023;DHT22;25713;-35.352;149.036;2023-05-07T01:53:53;13.00;83.20
40023;DHT22;25713;-35.352;149.036;2023-05-07T01:56:23;12.90;83.80
40023;DHT22;25713;-35.352;149.036;2023-05-07T01:58:53;12.80;84.70
40023;DHT22;25713;-35.352;149.036;2023-05-07T02:01:22;12.80;84.60
40023;DHT22;25713;-35.352;149.036;2023-05-07T02:03:52;12.80;85.20
40023;DHT22;25713;-35.352;149.036;2023-05-07T02:06:25;12.80;86.30
40023;DHT22;25713;-35.352;149.036;2023-05-07T02:09:01;12.70;86.40
40023;DHT22;25713;-35.352;149.036;2023-05-07T02:11:30;12.70;85.70
40023;DHT22;25713;-35.352;149.036;2023-05-07T02:14:00;12.70;84.70
40023;DHT22;25713;-35.352;149.036;2023-05-07T02:16:29;12.70;85.10
40023;DHT22;25713;-35.352;149.036;2023-05-07T02:18:58;12.70;84.50
40023;DHT22;25713;-35.352;149.036;2023-05-07T02:21:28;12.70;84.70
40023;DHT22;25713;-35.352;149.036;2023-05-07T02:24:00;12.70;84.30
40023;DHT22;25713;-35.352;149.036;2023-05-07T02:26:29;12.80;84.60
40023;DHT22;25713;-35.352;149.036;2023-05-07T02:28:58;12.70;84.40
40023;DHT22;25713;-35.352;149.036;2023-05-07T02:31:28;12.70;84.50
40023;DHT22;25713;-35.352;149.036;2023-05-07T02:33:58;12.80;84.70
40023;DHT22;25713;-35.352;149.036;2023-05-07T02:36:27;12.80;85.20
40023;DHT22;25713;-35.352;149.036;2023-05-07T02:39:09;12.80;85.10
40023;DHT22;25713;-35.352;149.036;2023-05-07T02:41:39;12.80;85.00
40023;DHT22;25713;-35.352;149.036;2023-05-07T02:44:09;12.80;85.60
40023;DHT22;25713;-35.352;149.036;2023-05-07T02:46:38;12.70;85.80
40023;DHT22;25713;-35.352;149.036;2023-05-07T02:49:11;12.80;85.10
40023;DHT22;25713;-35.352;149.036;2023-05-07T02:51:40;12.80;85.90
40023;DHT22;25713;-35.352;149.036;2023-05-07T02:54:18;12.70;85.10
40023;DHT22;25713;-35.352;149.036;2023-05-07T02:56:48;12.70;86.40
40023;DHT22;25713;-35.352;149.036;2023-05-07T02:59:17;12.70;85.80
40023;DHT22;25713;-35.352;149.036;2023-05-07T03:01:47;12.70;85.20
40023;DHT22;25713;-35.352;149.036;2023-05-07T03:04:16;12.70;86.10
40023;DHT22;25713;-35.352;149.036;2023-05-07T03:06:46;12.70;86.40
40023;DHT22;25713;-35.352;149.036;2023-05-07T03:09:17;12.70;85.80
40023;DHT22;25713;-35.352;149.036;2023-05-07T03:11:47;12.70;86.00
40023;DHT22;25713;-35.352;149.036;2023-05-07T03:14:16;12.70;86.50
40023;DHT22;25713;-35.352;149.036;2023-05-07T03:16:45;12.70;86.50
40023;DHT22;25713;-35.352;149.036;2023-05-07T03:19:15;12.80;85.80
40023;DHT22;25713;-35.352;149.036;2023-05-07T03:21:44;12.80;86.50
40023;DHT22;25713;-35.352;149.036;2023-05-07T03:24:14;12.80;86.30
40023;DHT22;25713;-35.352;149.036;2023-05-07T03:26:45;12.80;85.90
40023;DHT22;25713;-35.352;149.036;2023-05-07T03:29:14;12.70;85.00
40023;DHT22;25713;-35.352;149.036;2023-05-07T03:31:44;12.70;85.30
40023;DHT22;25713;-35.352;149.036;2023-05-07T03:34:13;12.70;86.30
40023;DHT22;25713;-35.352;149.036;2023-05-07T03:36:43;12.70;87.10
40023;DHT22;25713;-35.352;149.036;2023-05-07T03:39:14;12.70;86.80
40023;DHT22;25713;-35.352;149.036;2023-05-07T03:41:45;12.70;86.00
40023;DHT22;25713;-35.352;149.036;2023-05-07T03:44:15;12.70;85.80
40023;DHT22;25713;-35.352;149.036;2023-05-07T03:46:44;12.70;86.30
40023;DHT22;25713;-35.352;149.036;2023-05-07T03:49:14;12.70;86.10
40023;DHT22;25713;-35.352;149.036;2023-05-07T03:51:44;12.70;87.10
40023;DHT22;25713;-35.352;149.036;2023-05-07T03:54:14;12.70;86.40
40023;DHT22;25713;-35.352;149.036;2023-05-07T03:56:47;12.70;86.90
40023;DHT22;25713;-35.352;149.036;2023-05-07T03:59:16;12.70;86.30
40023;DHT22;25713;-35.352;149.036;2023-05-07T04:01:49;12.70;86.90
40023;DHT22;25713;-35.352;149.036;2023-05-07T04:04:20;12.70;85.80
40023;DHT22;25713;-35.352;149.036;2023-05-07T04:06:50;12.70;85.60
40023;DHT22;25713;-35.352;149.036;2023-05-07T04:09:19;12.70;86.00
40023;DHT22;25713;-35.352;149.036;2023-05-07T04:11:52;12.60;86.30
40023;DHT22;25713;-35.352;149.036;2023-05-07T04:14:21;12.60;86.40
40023;DHT22;25713;-35.352;149.036;2023-05-07T04:16:51;12.60;87.30
40023;DHT22;25713;-35.352;149.036;2023-05-07T04:19:21;12.60;87.30
40023;DHT22;25713;-35.352;149.036;2023-05-07T04:21:54;12.60;87.40
40023;DHT22;25713;-35.352;149.036;2023-05-07T04:24:24;12.60;86.50
40023;DHT22;25713;-35.352;149.036;2023-05-07T04:26:56;12.60;86.10
40023;DHT22;25713;-35.352;149.036;2023-05-07T04:29:25;12.60;85.80
40023;DHT22;25713;-35.352;149.036;2023-05-07T04:31:55;12.60;85.40
40023;DHT22;25713;-35.352;149.036;2023-05-07T04:34:25;12.70;85.10
40023;DHT22;25713;-35.352;149.036;2023-05-07T04:36:58;12.70;85.30
40023;DHT22;25713;-35.352;149.036;2023-05-07T04:39:27;12.70;85.90
40023;DHT22;25713;-35.352;149.036;2023-05-07T04:41:59;12.70;85.20
40023;DHT22;25713;-35.352;149.036;2023-05-07T04:44:29;12.70;85.20
40023;DHT22;25713;-35.352;149.036;2023-05-07T04:46:59;12.70;85.50
40023;DHT22;25713;-35.352;149.036;2023-05-07T04:49:28;12.70;85.80
40023;DHT22;25713;-35.352;149.036;2023-05-07T04:51:59;12.70;86.00
40023;DHT22;25713;-35.352;149.036;2023-05-07T04:54:28;12.70;86.40
40023;DHT22;25713;-35.352;149.036;2023-05-07T04:57:00;12.70;86.90
40023;DHT22;25713;-35.352;149.036;2023-05-07T04:59:32;12.70;87.60
40023;DHT22;25713;-35.352;149.036;2023-05-07T05:02:02;12.70;87.20
40023;DHT22;25713;-35.352;149.036;2023-05-07T05:04:32;12.70;86.90
40023;DHT22;25713;-35.352;149.036;2023-05-07T05:07:01;12.70;87.00
40023;DHT22;25713;-35.352;149.036;2023-05-07T05:09:33;12.70;87.30
40023;DHT22;25713;-35.352;149.036;2023-05-07T05:12:04;12.70;86.00
40023;DHT22;25713;-35.352;149.036;2023-05-07T05:14:34;12.60;85.80
40023;DHT22;25713;-35.352;149.036;2023-05-07T05:17:03;12.60;86.70
40023;DHT22;25713;-35.352;149.036;2023-05-07T05:19:33;12.60;85.70
40023;DHT22;25713;-35.352;149.036;2023-05-07T05:22:02;12.60;84.90
40023;DHT22;25713;-35.352;149.036;2023-05-07T05:24:32;12.60;85.10
40023;DHT22;25713;-35.352;149.036;2023-05-07T05:27:03;12.60;85.20
40023;DHT22;25713;-35.352;149.036;2023-05-07T05:29:34;12.60;85.30
40023;DHT22;25713;-35.352;149.036;2023-05-07T05:32:04;12.60;85.00
40023;DHT22;25713;-35.352;149.036;2023-05-07T05:34:33;12.60;84.00
40023;DHT22;25713;-35.352;149.036;2023-05-07T05:37:03;12.60;84.00
40023;DHT22;25713;-35.352;149.036;2023-05-07T05:39:32;12.60;83.80
40023;DHT22;25713;-35.352;149.036;2023-05-07T05:42:04;12.60;83.30
40023;DHT22;25713;-35.352;149.036;2023-05-07T05:44:36;12.50;84.40
40023;DHT22;25713;-35.352;149.036;2023-05-07T05:47:05;12.50;85.30
40023;DHT22;25713;-35.352;149.036;2023-05-07T05:49:35;12.50;85.20
40023;DHT22;25713;-35.352;149.036;2023-05-07T05:52:06;12.50;83.90
40023;DHT22;25713;-35.352;149.036;2023-05-07T05:54:36;12.50;84.40
40023;DHT22;25713;-35.352;149.036;2023-05-07T05:57:08;12.50;83.70
40023;DHT22;25713;-35.352;149.036;2023-05-07T05:59:38;12.50;85.40
40023;DHT22;25713;-35.352;149.036;2023-05-07T06:02:07;12.50;85.40
40023;DHT22;25713;-35.352;149.036;2023-05-07T06:04:36;12.50;85.60
40023;DHT22;25713;-35.352;149.036;2023-05-07T06:07:07;12.40;85.90
40023;DHT22;25713;-35.352;149.036;2023-05-07T06:09:36;12.40;86.70
40023;DHT22;25713;-35.352;149.036;2023-05-07T06:12:08;12.40;86.60
40023;DHT22;25713;-35.352;149.036;2023-05-07T06:14:38;12.40;85.90
40023;DHT22;25713;-35.352;149.036;2023-05-07T06:17:07;12.30;85.90
40023;DHT22;25713;-35.352;149.036;2023-05-07T06:19:37;12.30;86.10
40023;DHT22;25713;-35.352;149.036;2023-05-07T06:22:06;12.30;87.60
40023;DHT22;25713;-35.352;149.036;2023-05-07T06:24:37;12.30;87.60
40023;DHT22;25713;-35.352;149.036;2023-05-07T06:27:10;12.30;86.80
40023;DHT22;25713;-35.352;149.036;2023-05-07T06:29:41;12.30;86.90
40023;DHT22;25713;-35.352;149.036;2023-05-07T06:32:16;12.20;85.80
40023;DHT22;25713;-35.352;149.036;2023-05-07T06:34:47;12.30;87.20
40023;DHT22;25713;-35.352;149.036;2023-05-07T06:37:17;12.30;87.10
40023;DHT22;25713;-35.352;149.036;2023-05-07T06:39:59;12.30;86.40
40023;DHT22;25713;-35.352;149.036;2023-05-07T06:42:32;12.30;86.00
40023;DHT22;25713;-35.352;149.036;2023-05-07T06:45:19;12.30;86.50
40023;DHT22;25713;-35.352;149.036;2023-05-07T06:47:49;12.30;85.90
40023;DHT22;25713;-35.352;149.036;2023-05-07T06:50:19;12.30;87.20
40023;DHT22;25713;-35.352;149.036;2023-05-07T06:52:49;12.20;86.20
40023;DHT22;25713;-35.352;149.036;2023-05-07T06:55:18;12.30;87.30
40023;DHT22;25713;-35.352;149.036;2023-05-07T06:57:50;12.30;87.50
40023;DHT22;25713;-35.352;149.036;2023-05-07T07:00:21;12.30;87.60
40023;DHT22;25713;-35.352;149.036;2023-05-07T07:02:55;12.40;86.60
40023;DHT22;25713;-35.352;149.036;2023-05-07T07:05:26;12.30;85.90
40023;DHT22;25713;-35.352;149.036;2023-05-07T07:07:56;12.30;86.10
40023;DHT22;25713;-35.352;149.036;2023-05-07T07:10:25;12.30;85.50
40023;DHT22;25713;-35.352;149.036;2023-05-07T07:12:59;12.40;86.70
40023;DHT22;25713;-35.352;149.036;2023-05-07T07:15:28;12.40;86.70
40023;DHT22;25713;-35.352;149.036;2023-05-07T07:17:59;12.40;85.90
40023;DHT22;25713;-35.352;149.036;2023-05-07T07:20:28;12.40;85.60
40023;DHT22;25713;-35.352;149.036;2023-05-07T07:22:58;12.40;86.20
40023;DHT22;25713;-35.352;149.036;2023-05-07T07:25:28;12.40;86.30
40023;DHT22;25713;-35.352;149.036;2023-05-07T07:28:00;12.40;86.10
40023;DHT22;25713;-35.352;149.036;2023-05-07T07:30:30;12.40;86.60
40023;DHT22;25713;-35.352;149.036;2023-05-07T07:33:00;12.40;86.50
40023;DHT22;25713;-35.352;149.036;2023-05-07T07:35:29;12.40;86.30
40023;DHT22;25713;-35.352;149.036;2023-05-07T07:37:59;12.40;86.20
40023;DHT22;25713;-35.352;149.036;2023-05-07T07:40:29;12.40;86.20
40023;DHT22;25713;-35.352;149.036;2023-05-07T07:43:01;12.40;85.50
40023;DHT22;25713;-35.352;149.036;2023-05-07T07:45:30;12.40;85.70
40023;DHT22;25713;-35.352;149.036;2023-05-07T07:48:00;12.40;85.30
40023;DHT22;25713;-35.352;149.036;2023-05-07T07:50:30;12.40;85.10
40023;DHT22;25713;-35.352;149.036;2023-05-07T07:53:00;12.40;85.20
40023;DHT22;25713;-35.352;149.036;2023-05-07T07:55:29;12.40;85.40
40023;DHT22;25713;-35.352;149.036;2023-05-07T07:58:01;12.30;85.80
40023;DHT22;25713;-35.352;149.036;2023-05-07T08:00:30;12.40;85.70
40023;DHT22;25713;-35.352;149.036;2023-05-07T08:03:01;12.40;86.00
40023;DHT22;25713;-35.352;149.036;2023-05-07T08:05:34;12.40;85.00
40023;DHT22;25713;-35.352;149.036;2023-05-07T08:08:05;12.40;85.10
40023;DHT22;25713;-35.352;149.036;2023-05-07T08:10:35;12.40;86.10
40023;DHT22;25713;-35.352;149.036;2023-05-07T08:13:12;12.30;85.80
40023;DHT22;25713;-35.352;149.036;2023-05-07T08:15:44;12.40;86.10
40023;DHT22;25713;-35.352;149.036;2023-05-07T08:18:15;12.30;86.50
40023;DHT22;25713;-35.352;149.036;2023-05-07T08:20:45;12.30;86.60
40023;DHT22;25713;-35.352;149.036;2023-05-07T08:23:19;12.30;86.60
40023;DHT22;25713;-35.352;149.036;2023-05-07T08:25:50;12.30;86.30
40023;DHT22;25713;-35.352;149.036;2023-05-07T08:28:21;12.40;86.10
40023;DHT22;25713;-35.352;149.036;2023-05-07T08:30:51;12.40;86.40
40023;DHT22;25713;-35.352;149.036;2023-05-07T08:33:20;12.40;86.60
40023;DHT22;25713;-35.352;149.036;2023-05-07T08:35:50;12.30;86.80
40023;DHT22;25713;-35.352;149.036;2023-05-07T08:38:19;12.30;86.60
40023;DHT22;25713;-35.352;149.036;2023-05-07T08:40:49;12.30;86.80
40023;DHT22;25713;-35.352;149.036;2023-05-07T08:43:22;12.40;86.60
40023;DHT22;25713;-35.352;149.036;2023-05-07T08:45:54;12.30;86.70
40023;DHT22;25713;-35.352;149.036;2023-05-07T08:48:28;12.40;87.10
40023;DHT22;25713;-35.352;149.036;2023-05-07T08:51:13;12.30;86.40
40023;DHT22;25713;-35.352;149.036;2023-05-07T08:53:43;12.30;85.90
40023;DHT22;25713;-35.352;149.036;2023-05-07T08:56:17;12.30;85.70
40023;DHT22;25713;-35.352;149.036;2023-05-07T08:58:48;12.30;86.10
40023;DHT22;25713;-35.352;149.036;2023-05-07T09:01:18;12.30;86.80
40023;DHT22;25713;-35.352;149.036;2023-05-07T09:03:53;12.30;86.10
40023;DHT22;25713;-35.352;149.036;2023-05-07T09:06:23;12.30;87.10
40023;DHT22;25713;-35.352;149.036;2023-05-07T09:08:54;12.30;86.40
40023;DHT22;25713;-35.352;149.036;2023-05-07T09:11:26;12.30;86.40
40023;DHT22;25713;-35.352;149.036;2023-05-07T09:14:01;12.30;86.80
40023;DHT22;25713;-35.352;149.036;2023-05-07T09:16:31;12.30;86.40
40023;DHT22;25713;-35.352;149.036;2023-05-07T09:19:02;12.30;86.80
40023;DHT22;25713;-35.352;149.036;2023-05-07T09:21:32;12.20;85.90
40023;DHT22;25713;-35.352;149.036;2023-05-07T09:24:04;12.20;86.00
40023;DHT22;25713;-35.352;149.036;2023-05-07T09:26:40;12.30;85.50
40023;DHT22;25713;-35.352;149.036;2023-05-07T09:29:16;12.30;85.00
40023;DHT22;25713;-35.352;149.036;2023-05-07T09:31:46;12.30;85.30
40023;DHT22;25713;-35.352;149.036;2023-05-07T09:34:18;12.20;85.40
40023;DHT22;25713;-35.352;149.036;2023-05-07T09:36:49;12.20;85.80
40023;DHT22;25713;-35.352;149.036;2023-05-07T09:39:19;12.20;85.60
40023;DHT22;25713;-35.352;149.036;2023-05-07T09:41:50;12.20;85.30
40023;DHT22;25713;-35.352;149.036;2023-05-07T09:44:37;12.20;85.30
40023;DHT22;25713;-35.352;149.036;2023-05-07T09:47:09;12.20;86.10
40023;DHT22;25713;-35.352;149.036;2023-05-07T09:49:48;12.20;85.60
40023;DHT22;25713;-35.352;149.036;2023-05-07T09:52:21;12.20;85.00
40023;DHT22;25713;-35.352;149.036;2023-05-07T09:54:54;12.20;85.10
40023;DHT22;25713;-35.352;149.036;2023-05-07T09:57:29;12.20;86.10
40023;DHT22;25713;-35.352;149.036;2023-05-07T10:00:08;12.20;86.30
40023;DHT22;25713;-35.352;149.036;2023-05-07T10:02:50;12.20;85.70
40023;DHT22;25713;-35.352;149.036;2023-05-07T10:05:23;12.20;85.80
40023;DHT22;25713;-35.352;149.036;2023-05-07T10:07:55;12.10;85.00
40023;DHT22;25713;-35.352;149.036;2023-05-07T10:10:26;12.20;85.80
40023;DHT22;25713;-35.352;149.036;2023-05-07T10:12:57;12.10;85.60
40023;DHT22;25713;-35.352;149.036;2023-05-07T10:15:36;12.10;84.90
40023;DHT22;25713;-35.352;149.036;2023-05-07T10:18:07;12.10;85.20
40023;DHT22;25713;-35.352;149.036;2023-05-07T10:20:38;12.10;84.50
40023;DHT22;25713;-35.352;149.036;2023-05-07T10:23:14;12.10;83.80
40023;DHT22;25713;-35.352;149.036;2023-05-07T10:25:49;12.00;80.50
40023;DHT22;25713;-35.352;149.036;2023-05-07T10:28:25;11.90;81.90
40023;DHT22;25713;-35.352;149.036;2023-05-07T10:31:09;11.70;83.00
40023;DHT22;25713;-35.352;149.036;2023-05-07T10:33:48;11.60;81.80
40023;DHT22;25713;-35.352;149.036;2023-05-07T10:36:20;11.70;83.80
40023;DHT22;25713;-35.352;149.036;2023-05-07T10:38:51;11.70;82.20
40023;DHT22;25713;-35.352;149.036;2023-05-07T10:41:21;11.50;79.90
40023;DHT22;25713;-35.352;149.036;2023-05-07T10:43:51;11.50;82.60
40023;DHT22;25713;-35.352;149.036;2023-05-07T10:46:29;11.60;83.00
40023;DHT22;25713;-35.352;149.036;2023-05-07T10:49:13;11.70;81.10
40023;DHT22;25713;-35.352;149.036;2023-05-07T10:52:15;11.70;83.50
40023;DHT22;25713;-35.352;149.036;2023-05-07T10:55:21;11.80;82.50
40023;DHT22;25713;-35.352;149.036;2023-05-07T10:58:28;11.80;82.80
40023;DHT22;25713;-35.352;149.036;2023-05-07T11:01:13;11.90;82.90
40023;DHT22;25713;-35.352;149.036;2023-05-07T11:07:20;11.90;83.20
40023;DHT22;25713;-35.352;149.036;2023-05-07T11:10:03;11.90;83.70
40023;DHT22;25713;-35.352;149.036;2023-05-07T11:12:56;11.90;83.30
40023;DHT22;25713;-35.352;149.036;2023-05-07T11:15:46;11.90;83.30
40023;DHT22;25713;-35.352;149.036;2023-05-07T11:18:47;12.00;84.20
40023;DHT22;25713;-35.352;149.036;2023-05-07T11:21:33;11.90;84.40
40023;DHT22;25713;-35.352;149.036;2023-05-07T11:24:12;11.90;84.80
40023;DHT22;25713;-35.352;149.036;2023-05-07T11:27:05;11.90;84.70
40023;DHT22;25713;-35.352;149.036;2023-05-07T11:29:34;12.00;85.00
40023;DHT22;25713;-35.352;149.036;2023-05-07T11:32:14;11.90;84.00
40023;DHT22;25713;-35.352;149.036;2023-05-07T11:34:53;11.90;84.70
40023;DHT22;25713;-35.352;149.036;2023-05-07T11:37:24;11.90;84.20
40023;DHT22;25713;-35.352;149.036;2023-05-07T11:40:10;11.90;83.50
40023;DHT22;25713;-35.352;149.036;2023-05-07T11:42:40;11.90;83.40
40023;DHT22;25713;-35.352;149.036;2023-05-07T11:45:10;11.80;83.30
40023;DHT22;25713;-35.352;149.036;2023-05-07T11:47:42;11.80;83.30
40023;DHT22;25713;-35.352;149.036;2023-05-07T11:50:13;11.80;82.10
40023;DHT22;25713;-35.352;149.036;2023-05-07T11:52:51;11.80;82.80
40023;DHT22;25713;-35.352;149.036;2023-05-07T11:55:25;11.70;83.00
40023;DHT22;25713;-35.352;149.036;2023-05-07T11:57:54;11.70;82.90
40023;DHT22;25713;-35.352;149.036;2023-05-07T12:00:24;11.70;83.80
40023;DHT22;25713;-35.352;149.036;2023-05-07T12:02:53;11.80;83.10
40023;DHT22;25713;-35.352;149.036;2023-05-07T12:05:23;11.80;83.40
40023;DHT22;25713;-35.352;149.036;2023-05-07T12:07:57;11.80;84.10
40023;DHT22;25713;-35.352;149.036;2023-05-07T12:10:30;11.80;84.60
40023;DHT22;25713;-35.352;149.036;2023-05-07T12:12:58;11.80;83.90
40023;DHT22;25713;-35.352;149.036;2023-05-07T12:15:29;11.80;82.60
40023;DHT22;25713;-35.352;149.036;2023-05-07T12:17:58;11.80;82.40
40023;DHT22;25713;-35.352;149.036;2023-05-07T12:20:27;11.80;84.40
40023;DHT22;25713;-35.352;149.036;2023-05-07T12:22:57;11.80;84.40
40023;DHT22;25713;-35.352;149.036;2023-05-07T12:25:31;11.80;85.00
40023;DHT22;25713;-35.352;149.036;2023-05-07T12:28:02;11.80;83.80
40023;DHT22;25713;-35.352;149.036;2023-05-07T12:30:32;11.80;83.20
40023;DHT22;25713;-35.352;149.036;2023-05-07T12:33:02;11.80;82.70
40023;DHT22;25713;-35.352;149.036;2023-05-07T12:35:32;11.80;81.50
40023;DHT22;25713;-35.352;149.036;2023-05-07T12:38:09;11.80;82.30
40023;DHT22;25713;-35.352;149.036;2023-05-07T12:40:41;11.80;83.20
40023;DHT22;25713;-35.352;149.036;2023-05-07T12:43:17;11.80;80.50
40023;DHT22;25713;-35.352;149.036;2023-05-07T12:45:48;11.70;82.50
40023;DHT22;25713;-35.352;149.036;2023-05-07T12:48:20;11.70;80.60
40023;DHT22;25713;-35.352;149.036;2023-05-07T12:50:54;11.50;82.00
40023;DHT22;25713;-35.352;149.036;2023-05-07T12:53:25;11.50;83.90
40023;DHT22;25713;-35.352;149.036;2023-05-07T12:55:57;11.60;80.30
40023;DHT22;25713;-35.352;149.036;2023-05-07T12:58:28;11.50;80.00
40023;DHT22;25713;-35.352;149.036;2023-05-07T13:00:59;11.50;81.90
40023;DHT22;25713;-35.352;149.036;2023-05-07T13:03:30;11.60;83.10
40023;DHT22;25713;-35.352;149.036;2023-05-07T13:06:02;11.50;76.90
40023;DHT22;25713;-35.352;149.036;2023-05-07T13:08:33;11.40;79.50
40023;DHT22;25713;-35.352;149.036;2023-05-07T13:11:09;11.40;82.80
40023;DHT22;25713;-35.352;149.036;2023-05-07T13:13:40;11.40;79.60
40023;DHT22;25713;-35.352;149.036;2023-05-07T13:16:11;11.30;82.20
40023;DHT22;25713;-35.352;149.036;2023-05-07T13:18:42;11.20;79.50
40023;DHT22;25713;-35.352;149.036;2023-05-07T13:21:12;11.20;82.20
40023;DHT22;25713;-35.352;149.036;2023-05-07T13:23:42;11.30;83.50
40023;DHT22;25713;-35.352;149.036;2023-05-07T13:26:15;11.30;82.50
40023;DHT22;25713;-35.352;149.036;2023-05-07T13:28:46;11.30;83.70
40023;DHT22;25713;-35.352;149.036;2023-05-07T13:31:16;11.30;82.00
40023;DHT22;25713;-35.352;149.036;2023-05-07T13:33:46;11.30;83.20
40023;DHT22;25713;-35.352;149.036;2023-05-07T13:36:16;11.40;84.00
40023;DHT22;25713;-35.352;149.036;2023-05-07T13:38:47;11.40;83.60
40023;DHT22;25713;-35.352;149.036;2023-05-07T13:41:19;11.40;82.90
40023;DHT22;25713;-35.352;149.036;2023-05-07T13:43:48;11.30;81.90
40023;DHT22;25713;-35.352;149.036;2023-05-07T13:46:19;11.30;79.90
40023;DHT22;25713;-35.352;149.036;2023-05-07T13:48:49;11.30;84.70
40023;DHT22;25713;-35.352;149.036;2023-05-07T13:51:19;11.30;84.80
40023;DHT22;25713;-35.352;149.036;2023-05-07T13:53:49;11.40;80.60
40023;DHT22;25713;-35.352;149.036;2023-05-07T13:56:21;11.40;82.40
40023;DHT22;25713;-35.352;149.036;2023-05-07T13:58:51;11.40;82.20
40023;DHT22;25713;-35.352;149.036;2023-05-07T14:01:21;11.40;83.60
40023;DHT22;25713;-35.352;149.036;2023-05-07T14:03:51;11.40;83.80
40023;DHT22;25713;-35.352;149.036;2023-05-07T14:06:21;11.40;84.50
40023;DHT22;25713;-35.352;149.036;2023-05-07T14:08:52;11.40;84.40
40023;DHT22;25713;-35.352;149.036;2023-05-07T14:11:25;11.50;84.20
40023;DHT22;25713;-35.352;149.036;2023-05-07T14:13:55;11.50;83.90
40023;DHT22;25713;-35.352;149.036;2023-05-07T14:16:25;11.50;84.20
40023;DHT22;25713;-35.352;149.036;2023-05-07T14:18:55;11.50;84.60
40023;DHT22;25713;-35.352;149.036;2023-05-07T14:21:25;11.50;83.60
40023;DHT22;25713;-35.352;149.036;2023-05-07T14:23:55;11.50;83.20
40023;DHT22;25713;-35.352;149.036;2023-05-07T14:26:27;11.60;83.40
40023;DHT22;25713;-35.352;149.036;2023-05-07T14:28:57;11.60;83.70
40023;DHT22;25713;-35.352;149.036;2023-05-07T14:31:28;11.50;84.00
40023;DHT22;25713;-35.352;149.036;2023-05-07T14:33:58;11.60;83.30
40023;DHT22;25713;-35.352;149.036;2023-05-07T14:36:28;11.60;83.80
40023;DHT22;25713;-35.352;149.036;2023-05-07T14:38:58;11.60;84.20
40023;DHT22;25713;-35.352;149.036;2023-05-07T14:41:32;11.60;84.50
40023;DHT22;25713;-35.352;149.036;2023-05-07T14:44:02;11.60;84.00
40023;DHT22;25713;-35.352;149.036;2023-05-07T14:46:32;11.60;85.20
40023;DHT22;25713;-35.352;149.036;2023-05-07T16:01:33;11.00;83.90
40023;DHT22;25713;-35.352;149.036;2023-05-07T16:04:04;11.10;82.50
40023;DHT22;25713;-35.352;149.036;2023-05-07T16:06:33;11.20;82.40
40023;DHT22;25713;-35.352;149.036;2023-05-07T16:09:03;11.20;83.20
40023;DHT22;25713;-35.352;149.036;2023-05-07T16:11:32;11.20;83.00
40023;DHT22;25713;-35.352;149.036;2023-05-07T16:14:02;11.20;83.70
40023;DHT22;25713;-35.352;149.036;2023-05-07T16:16:35;11.10;80.30
40023;DHT22;25713;-35.352;149.036;2023-05-07T16:19:05;11.00;80.60
40023;DHT22;25713;-35.352;149.036;2023-05-07T16:21:34;11.00;81.30
40023;DHT22;25713;-35.352;149.036;2023-05-07T16:24:04;11.10;81.90
40023;DHT22;25713;-35.352;149.036;2023-05-07T16:26:33;11.00;80.40
40023;DHT22;25713;-35.352;149.036;2023-05-07T16:29:04;11.10;80.20
40023;DHT22;25713;-35.352;149.036;2023-05-07T16:31:35;11.10;81.60